sensor_id;sensor_type;location;lat;lon;timestamp;P1;durP1;ratioP1;P2;durP2;ratioP2
8887;SDS011;4480;52.370;9.748;2024-03-08T00:00:03;19.98;;;14.20;;
8887;SDS011;4480;52.370;9.748;2024-03-08T00:02:34;20.75;;;14.77;;
8887;SDS011;4480;52.370;9.748;2024-03-08T00:05:04;20.73;;;14.23;;
8887;SDS011;4480;52.370;9.748;2024-03-08T00:07:33;23.13;;;14.95;;
8887;SDS011;4480;52.370;9.748;2024-03-08T00:10:00;24.85;;;15.43;;
8887;SDS011;4480;52.370;9.748;2024-03-08T00:12:27;20.33;;;14.32;;
8887;SDS011;4480;52.370;9.748;2024-03-08T00:14:55;19.67;;;13.95;;
8887;SDS011;4480;52.370;9.748;2024-03-08T00:17:22;27.92;;;15.10;;
8887;SDS011;4480;52.370;9.748;2024-03-08T00:19:49;21.65;;;14.60;;
8887;SDS011;4480;52.370;9.748;2024-03-08T00:22:17;20.67;;;14.73;;
8887;SDS011;4480;52.370;9.748;2024-03-08T00:24:44;23.67;;;14.65;;
8887;SDS011;4480;52.370;9.748;2024-03-08T00:27:10;25.77;;;16.27;;
8887;SDS011;4480;52.370;9.748;2024-03-08T00:29:37;22.33;;;15.65;;
8887;SDS011;4480;52.370;9.748;2024-03-08T00:32:05;25.40;;;15.05;;
8887;SDS011;4480;52.370;9.748;2024-03-08T00:34:32;27.73;;;16.40;;
8887;SDS011;4480;52.370;9.748;2024-03-08T00:37:01;21.67;;;14.70;;
8887;SDS011;4480;52.370;9.748;2024-03-08T00:39:29;23.88;;;15.43;;
8887;SDS011;4480;52.370;9.748;2024-03-08T00:41:56;28.40;;;15.18;;
8887;SDS011;4480;52.370;9.748;2024-03-08T00:44:23;22.38;;;16.85;;
8887;SDS011;4480;52.370;9.748;2024-03-08T00:46:49;28.35;;;15.25;;
8887;SDS011;4480;52.370;9.748;2024-03-08T00:49:16;25.85;;;15.65;;
8887;SDS011;4480;52.370;9.748;2024-03-08T00:51:43;22.13;;;15.10;;
8887;SDS011;4480;52.370;9.748;2024-03-08T00:54:10;20.70;;;14.23;;
8887;SDS011;4480;52.370;9.748;2024-03-08T00:56:38;28.83;;;16.83;;
8887;SDS011;4480;52.370;9.748;2024-03-08T00:59:06;24.58;;;16.55;;
8887;SDS011;4480;52.370;9.748;2024-03-08T01:01:33;25.33;;;16.80;;
8887;SDS011;4480;52.370;9.748;2024-03-08T01:04:00;24.80;;;16.13;;
8887;SDS011;4480;52.370;9.748;2024-03-08T01:06:27;25.20;;;15.70;;
8887;SDS011;4480;52.370;9.748;2024-03-08T01:08:53;26.88;;;15.98;;
8887;SDS011;4480;52.370;9.748;2024-03-08T01:11:20;29.25;;;16.10;;
8887;SDS011;4480;52.370;9.748;2024-03-08T01:13:48;20.33;;;14.38;;
8887;SDS011;4480;52.370;9.748;2024-03-08T01:16:15;26.55;;;15.45;;
8887;SDS011;4480;52.370;9.748;2024-03-08T01:18:42;24.67;;;14.48;;
8887;SDS011;4480;52.370;9.748;2024-03-08T01:21:09;24.52;;;14.95;;
8887;SDS011;4480;52.370;9.748;2024-03-08T01:23:36;20.98;;;14.35;;
8887;SDS011;4480;52.370;9.748;2024-03-08T01:26:03;23.88;;;16.83;;
8887;SDS011;4480;52.370;9.748;2024-03-08T01:28:30;23.15;;;16.05;;
8887;SDS011;4480;52.370;9.748;2024-03-08T01:31:00;23.83;;;15.75;;
8887;SDS011;4480;52.370;9.748;2024-03-08T01:33:29;28.10;;;16.20;;
8887;SDS011;4480;52.370;9.748;2024-03-08T01:35:56;23.98;;;15.65;;
8887;SDS011;4480;52.370;9.748;2024-03-08T01:38:23;25.45;;;16.50;;
8887;SDS011;4480;52.370;9.748;2024-03-08T01:40:50;24.83;;;16.30;;
8887;SDS011;4480;52.370;9.748;2024-03-08T01:43:18;22.77;;;15.85;;
8887;SDS011;4480;52.370;9.748;2024-03-08T01:45:45;24.45;;;16.20;;
8887;SDS011;4480;52.370;9.748;2024-03-08T01:48:14;27.98;;;16.00;;
8887;SDS011;4480;52.370;9.748;2024-03-08T01:50:42;26.65;;;15.60;;
8887;SDS011;4480;52.370;9.748;2024-03-08T01:53:09;24.63;;;15.70;;
8887;SDS011;4480;52.370;9.748;2024-03-08T01:55:37;24.55;;;15.85;;
8887;SDS011;4480;52.370;9.748;2024-03-08T01:58:05;25.52;;;16.65;;
8887;SDS011;4480;52.370;9.748;2024-03-08T02:00:32;27.98;;;16.23;;
8887;SDS011;4480;52.370;9.748;2024-03-08T02:03:01;26.55;;;16.10;;
8887;SDS011;4480;52.370;9.748;2024-03-08T02:05:30;24.58;;;16.35;;
8887;SDS011;4480;52.370;9.748;2024-03-08T02:07:57;23.63;;;16.23;;
8887;SDS011;4480;52.370;9.748;2024-03-08T02:10:24;24.80;;;14.52;;
8887;SDS011;4480;52.370;9.748;2024-03-08T02:12:51;22.80;;;14.32;;
8887;SDS011;4480;52.370;9.748;2024-03-08T02:15:18;27.08;;;16.33;;
8887;SDS011;4480;52.370;9.748;2024-03-08T02:17:46;23.02;;;16.45;;
8887;SDS011;4480;52.370;9.748;2024-03-08T02:20:14;23.35;;;16.85;;
8887;SDS011;4480;52.370;9.748;2024-03-08T02:22:42;29.38;;;16.98;;
8887;SDS011;4480;52.370;9.748;2024-03-08T02:25:09;28.08;;;17.23;;
8887;SDS011;4480;52.370;9.748;2024-03-08T02:27:37;25.77;;;16.60;;
8887;SDS011;4480;52.370;9.748;2024-03-08T02:30:04;31.05;;;16.23;;
8887;SDS011;4480;52.370;9.748;2024-03-08T02:32:32;26.17;;;16.45;;
8887;SDS011;4480;52.370;9.748;2024-03-08T02:34:58;26.10;;;16.63;;
8887;SDS011;4480;52.370;9.748;2024-03-08T02:37:25;28.42;;;16.30;;
8887;SDS011;4480;52.370;9.748;2024-03-08T02:39:54;26.95;;;16.50;;
8887;SDS011;4480;52.370;9.748;2024-03-08T02:42:21;26.02;;;16.75;;
8887;SDS011;4480;52.370;9.748;2024-03-08T02:44:48;30.13;;;18.23;;
8887;SDS011;4480;52.370;9.748;2024-03-08T02:47:14;26.80;;;16.48;;
8887;SDS011;4480;52.370;9.748;2024-03-08T02:49:41;25.48;;;15.75;;
8887;SDS011;4480;52.370;9.748;2024-03-08T02:52:08;28.35;;;16.77;;
8887;SDS011;4480;52.370;9.748;2024-03-08T02:54:35;23.95;;;15.73;;
8887;SDS011;4480;52.370;9.748;2024-03-08T02:57:03;33.22;;;16.75;;
8887;SDS011;4480;52.370;9.748;2024-03-08T02:59:32;25.50;;;16.02;;
8887;SDS011;4480;52.370;9.748;2024-03-08T03:01:59;30.40;;;17.00;;
8887;SDS011;4480;52.370;9.748;2024-03-08T03:04:26;27.10;;;17.23;;
8887;SDS011;4480;52.370;9.748;2024-03-08T03:06:53;28.17;;;17.27;;
8887;SDS011;4480;52.370;9.748;2024-03-08T03:09:20;23.70;;;16.25;;
8887;SDS011;4480;52.370;9.748;2024-03-08T03:11:52;24.00;;;16.08;;
8887;SDS011;4480;52.370;9.748;2024-03-08T03:14:20;23.52;;;16.23;;
8887;SDS011;4480;52.370;9.748;2024-03-08T03:16:47;27.25;;;15.57;;
8887;SDS011;4480;52.370;9.748;2024-03-08T03:19:15;24.65;;;15.68;;
8887;SDS011;4480;52.370;9.748;2024-03-08T03:21:41;22.70;;;16.27;;
8887;SDS011;4480;52.370;9.748;2024-03-08T03:24:09;28.00;;;16.65;;
8887;SDS011;4480;52.370;9.748;2024-03-08T03:26:36;27.90;;;16.23;;
8887;SDS011;4480;52.370;9.748;2024-03-08T03:29:04;27.33;;;17.23;;
8887;SDS011;4480;52.370;9.748;2024-03-08T03:31:35;30.00;;;16.85;;
8887;SDS011;4480;52.370;9.748;2024-03-08T03:34:02;28.73;;;17.02;;
8887;SDS011;4480;52.370;9.748;2024-03-08T03:36:29;33.85;;;17.20;;
8887;SDS011;4480;52.370;9.748;2024-03-08T03:38:56;24.17;;;16.40;;
8887;SDS011;4480;52.370;9.748;2024-03-08T03:41:35;25.13;;;16.73;;
8887;SDS011;4480;52.370;9.748;2024-03-08T03:44:02;24.88;;;16.02;;
8887;SDS011;4480;52.370;9.748;2024-03-08T03:46:29;25.20;;;16.45;;
8887;SDS011;4480;52.370;9.748;2024-03-08T03:48:57;27.13;;;17.13;;
8887;SDS011;4480;52.370;9.748;2024-03-08T03:51:24;25.55;;;17.27;;
8887;SDS011;4480;52.370;9.748;2024-03-08T03:53:51;30.52;;;16.67;;
8887;SDS011;4480;52.370;9.748;2024-03-08T03:56:18;29.20;;;17.90;;
8887;SDS011;4480;52.370;9.748;2024-03-08T03:58:44;25.05;;;16.05;;
8887;SDS011;4480;52.370;9.748;2024-03-08T04:01:11;28.63;;;16.83;;
8887;SDS011;4480;52.370;9.748;2024-03-08T04:03:40;32.78;;;18.38;;
8887;SDS011;4480;52.370;9.748;2024-03-08T04:06:09;26.45;;;17.20;;
8887;SDS011;4480;52.370;9.748;2024-03-08T04:08:36;30.90;;;16.98;;
8887;SDS011;4480;52.370;9.748;2024-03-08T04:13:17;27.45;;;17.48;;
8887;SDS011;4480;52.370;9.748;2024-03-08T04:15:45;26.45;;;16.92;;
8887;SDS011;4480;52.370;9.748;2024-03-08T04:18:13;30.27;;;18.13;;
8887;SDS011;4480;52.370;9.748;2024-03-08T04:20:40;28.20;;;17.13;;
8887;SDS011;4480;52.370;9.748;2024-03-08T04:23:06;29.77;;;18.08;;
8887;SDS011;4480;52.370;9.748;2024-03-08T04:25:33;29.20;;;16.38;;
8887;SDS011;4480;52.370;9.748;2024-03-08T04:28:00;25.40;;;16.10;;
8887;SDS011;4480;52.370;9.748;2024-03-08T04:30:28;35.78;;;17.25;;
8887;SDS011;4480;52.370;9.748;2024-03-08T04:32:55;32.40;;;17.80;;
8887;SDS011;4480;52.370;9.748;2024-03-08T04:35:22;30.23;;;16.63;;
8887;SDS011;4480;52.370;9.748;2024-03-08T04:37:49;24.27;;;15.98;;
8887;SDS011;4480;52.370;9.748;2024-03-08T04:40:15;30.75;;;17.60;;
8887;SDS011;4480;52.370;9.748;2024-03-08T04:42:43;31.42;;;19.00;;
8887;SDS011;4480;52.370;9.748;2024-03-08T04:45:10;30.77;;;16.88;;
8887;SDS011;4480;52.370;9.748;2024-03-08T04:47:38;34.40;;;16.77;;
8887;SDS011;4480;52.370;9.748;2024-03-08T04:50:06;30.85;;;16.83;;
8887;SDS011;4480;52.370;9.748;2024-03-08T04:52:33;29.80;;;15.50;;
8887;SDS011;4480;52.370;9.748;2024-03-08T04:55:00;30.08;;;16.70;;
8887;SDS011;4480;52.370;9.748;2024-03-08T04:57:29;28.15;;;16.90;;
8887;SDS011;4480;52.370;9.748;2024-03-08T04:59:57;32.22;;;18.65;;
8887;SDS011;4480;52.370;9.748;2024-03-08T05:02:24;28.58;;;15.27;;
8887;SDS011;4480;52.370;9.748;2024-03-08T05:04:52;30.35;;;17.20;;
8887;SDS011;4480;52.370;9.748;2024-03-08T05:07:18;35.28;;;18.90;;
8887;SDS011;4480;52.370;9.748;2024-03-08T05:09:45;28.60;;;17.55;;
8887;SDS011;4480;52.370;9.748;2024-03-08T05:12:16;27.02;;;16.83;;
8887;SDS011;4480;52.370;9.748;2024-03-08T05:14:43;30.00;;;18.85;;
8887;SDS011;4480;52.370;9.748;2024-03-08T05:17:11;29.13;;;16.73;;
8887;SDS011;4480;52.370;9.748;2024-03-08T05:19:38;29.25;;;19.38;;
8887;SDS011;4480;52.370;9.748;2024-03-08T05:22:06;30.25;;;16.80;;
8887;SDS011;4480;52.370;9.748;2024-03-08T05:24:33;28.77;;;17.13;;
8887;SDS011;4480;52.370;9.748;2024-03-08T05:27:00;30.63;;;17.45;;
8887;SDS011;4480;52.370;9.748;2024-03-08T05:29:28;31.85;;;19.00;;
8887;SDS011;4480;52.370;9.748;2024-03-08T05:31:55;31.58;;;18.40;;
8887;SDS011;4480;52.370;9.748;2024-03-08T05:34:23;30.02;;;18.35;;
8887;SDS011;4480;52.370;9.748;2024-03-08T05:36:49;32.33;;;19.35;;
8887;SDS011;4480;52.370;9.748;2024-03-08T05:39:18;30.88;;;17.55;;
8887;SDS011;4480;52.370;9.748;2024-03-08T05:41:45;30.25;;;18.50;;
8887;SDS011;4480;52.370;9.748;2024-03-08T05:44:12;28.15;;;19.05;;
8887;SDS011;4480;52.370;9.748;2024-03-08T05:46:39;35.70;;;18.13;;
8887;SDS011;4480;52.370;9.748;2024-03-08T05:49:06;28.48;;;19.13;;
8887;SDS011;4480;52.370;9.748;2024-03-08T05:51:35;33.90;;;20.38;;
8887;SDS011;4480;52.370;9.748;2024-03-08T05:54:04;27.13;;;18.52;;
8887;SDS011;4480;52.370;9.748;2024-03-08T05:56:35;32.35;;;19.30;;
8887;SDS011;4480;52.370;9.748;2024-03-08T05:59:02;31.13;;;21.77;;
8887;SDS011;4480;52.370;9.748;2024-03-08T06:01:29;31.80;;;18.92;;
8887;SDS011;4480;52.370;9.748;2024-03-08T06:03:57;30.58;;;19.27;;
8887;SDS011;4480;52.370;9.748;2024-03-08T06:06:24;36.83;;;20.60;;
8887;SDS011;4480;52.370;9.748;2024-03-08T06:08:51;29.88;;;18.75;;
8887;SDS011;4480;52.370;9.748;2024-03-08T06:11:18;36.88;;;20.02;;
8887;SDS011;4480;52.370;9.748;2024-03-08T06:13:48;29.40;;;19.65;;
8887;SDS011;4480;52.370;9.748;2024-03-08T06:16:15;28.98;;;18.10;;
8887;SDS011;4480;52.370;9.748;2024-03-08T06:18:42;31.70;;;20.00;;
8887;SDS011;4480;52.370;9.748;2024-03-08T06:21:08;32.42;;;18.85;;
8887;SDS011;4480;52.370;9.748;2024-03-08T06:23:36;31.08;;;19.13;;
8887;SDS011;4480;52.370;9.748;2024-03-08T06:26:03;30.63;;;20.13;;
8887;SDS011;4480;52.370;9.748;2024-03-08T06:28:30;31.63;;;19.48;;
8887;SDS011;4480;52.370;9.748;2024-03-08T06:30:59;34.70;;;19.88;;
8887;SDS011;4480;52.370;9.748;2024-03-08T06:33:26;32.83;;;20.98;;
8887;SDS011;4480;52.370;9.748;2024-03-08T06:35:53;31.73;;;19.33;;
8887;SDS011;4480;52.370;9.748;2024-03-08T06:38:22;32.20;;;20.13;;
8887;SDS011;4480;52.370;9.748;2024-03-08T06:40:48;31.63;;;20.38;;
8887;SDS011;4480;52.370;9.748;2024-03-08T06:43:16;31.88;;;21.95;;
8887;SDS011;4480;52.370;9.748;2024-03-08T06:45:43;29.63;;;20.25;;
8887;SDS011;4480;52.370;9.748;2024-03-08T06:48:14;33.25;;;20.73;;
8887;SDS011;4480;52.370;9.748;2024-03-08T06:50:42;32.30;;;20.55;;
8887;SDS011;4480;52.370;9.748;2024-03-08T06:53:09;33.42;;;20.00;;
8887;SDS011;4480;52.370;9.748;2024-03-08T06:55:36;33.15;;;19.98;;
8887;SDS011;4480;52.370;9.748;2024-03-08T06:58:03;29.73;;;21.05;;
8887;SDS011;4480;52.370;9.748;2024-03-08T07:00:31;32.00;;;20.48;;
8887;SDS011;4480;52.370;9.748;2024-03-08T07:02:58;34.28;;;20.50;;
8887;SDS011;4480;52.370;9.748;2024-03-08T07:05:27;34.22;;;20.52;;
8887;SDS011;4480;52.370;9.748;2024-03-08T07:07:54;33.28;;;21.08;;
8887;SDS011;4480;52.370;9.748;2024-03-08T07:10:21;24.38;;;17.95;;
8887;SDS011;4480;52.370;9.748;2024-03-08T07:12:49;37.72;;;18.83;;
8887;SDS011;4480;52.370;9.748;2024-03-08T07:15:16;29.90;;;19.50;;
8887;SDS011;4480;52.370;9.748;2024-03-08T07:17:44;34.80;;;20.95;;
8887;SDS011;4480;52.370;9.748;2024-03-08T07:20:12;32.70;;;19.10;;
8887;SDS011;4480;52.370;9.748;2024-03-08T07:22:41;28.10;;;19.45;;
8887;SDS011;4480;52.370;9.748;2024-03-08T07:25:08;35.42;;;21.85;;
8887;SDS011;4480;52.370;9.748;2024-03-08T07:27:46;30.48;;;19.75;;
8887;SDS011;4480;52.370;9.748;2024-03-08T07:30:13;28.30;;;19.17;;
8887;SDS011;4480;52.370;9.748;2024-03-08T07:33:01;27.55;;;18.88;;
8887;SDS011;4480;52.370;9.748;2024-03-08T07:35:27;29.92;;;20.95;;
8887;SDS011;4480;52.370;9.748;2024-03-08T07:37:55;33.47;;;20.60;;
8887;SDS011;4480;52.370;9.748;2024-03-08T07:40:22;35.20;;;20.63;;
8887;SDS011;4480;52.370;9.748;2024-03-08T07:42:49;35.42;;;22.35;;
8887;SDS011;4480;52.370;9.748;2024-03-08T07:45:16;30.67;;;21.05;;
8887;SDS011;4480;52.370;9.748;2024-03-08T07:47:43;31.02;;;21.13;;
8887;SDS011;4480;52.370;9.748;2024-03-08T07:50:10;27.38;;;18.92;;
8887;SDS011;4480;52.370;9.748;2024-03-08T07:52:41;25.40;;;19.70;;
8887;SDS011;4480;52.370;9.748;2024-03-08T07:55:09;31.15;;;18.85;;
8887;SDS011;4480;52.370;9.748;2024-03-08T07:57:36;28.48;;;19.70;;
8887;SDS011;4480;52.370;9.748;2024-03-08T08:00:04;26.33;;;18.50;;
8887;SDS011;4480;52.370;9.748;2024-03-08T08:02:33;25.73;;;18.77;;
8887;SDS011;4480;52.370;9.748;2024-03-08T08:05:00;26.85;;;19.23;;
8887;SDS011;4480;52.370;9.748;2024-03-08T08:07:27;26.23;;;18.92;;
8887;SDS011;4480;52.370;9.748;2024-03-08T08:09:54;28.67;;;20.73;;
8887;SDS011;4480;52.370;9.748;2024-03-08T08:12:22;30.13;;;19.05;;
8887;SDS011;4480;52.370;9.748;2024-03-08T08:14:48;31.50;;;19.95;;
8887;SDS011;4480;52.370;9.748;2024-03-08T08:17:15;28.42;;;20.13;;
8887;SDS011;4480;52.370;9.748;2024-03-08T08:19:42;29.73;;;21.70;;
8887;SDS011;4480;52.370;9.748;2024-03-08T08:22:09;27.48;;;19.10;;
8887;SDS011;4480;52.370;9.748;2024-03-08T08:24:36;33.97;;;20.35;;
8887;SDS011;4480;52.370;9.748;2024-03-08T08:27:03;28.30;;;20.45;;
8887;SDS011;4480;52.370;9.748;2024-03-08T08:29:32;28.17;;;18.30;;
8887;SDS011;4480;52.370;9.748;2024-03-08T08:32:00;28.92;;;19.90;;
8887;SDS011;4480;52.370;9.748;2024-03-08T08:34:27;29.52;;;21.27;;
8887;SDS011;4480;52.370;9.748;2024-03-08T08:36:55;28.13;;;19.50;;
8887;SDS011;4480;52.370;9.748;2024-03-08T08:39:21;28.60;;;20.75;;
8887;SDS011;4480;52.370;9.748;2024-03-08T08:41:50;28.63;;;20.98;;
8887;SDS011;4480;52.370;9.748;2024-03-08T08:44:17;27.67;;;19.45;;
8887;SDS011;4480;52.370;9.748;2024-03-08T08:46:45;30.73;;;19.65;;
8887;SDS011;4480;52.370;9.748;2024-03-08T08:49:12;27.88;;;19.33;;
8887;SDS011;4480;52.370;9.748;2024-03-08T08:51:48;30.35;;;21.02;;
8887;SDS011;4480;52.370;9.748;2024-03-08T08:54:15;25.50;;;19.00;;
8887;SDS011;4480;52.370;9.748;2024-03-08T08:56:42;28.13;;;20.08;;
8887;SDS011;4480;52.370;9.748;2024-03-08T08:59:09;28.30;;;20.75;;
8887;SDS011;4480;52.370;9.748;2024-03-08T09:01:38;30.38;;;20.80;;
8887;SDS011;4480;52.370;9.748;2024-03-08T09:04:06;28.77;;;19.70;;
8887;SDS011;4480;52.370;9.748;2024-03-08T09:06:33;28.52;;;20.45;;
8887;SDS011;4480;52.370;9.748;2024-03-08T09:09:01;28.63;;;20.33;;
8887;SDS011;4480;52.370;9.748;2024-03-08T09:11:28;31.13;;;22.20;;
8887;SDS011;4480;52.370;9.748;2024-03-08T09:13:56;29.13;;;19.80;;
8887;SDS011;4480;52.370;9.748;2024-03-08T09:16:22;31.63;;;20.08;;
8887;SDS011;4480;52.370;9.748;2024-03-08T09:18:50;32.35;;;20.20;;
8887;SDS011;4480;52.370;9.748;2024-03-08T09:21:18;27.38;;;21.02;;
8887;SDS011;4480;52.370;9.748;2024-03-08T09:23:44;27.65;;;20.00;;
8887;SDS011;4480;52.370;9.748;2024-03-08T09:26:11;26.73;;;20.40;;
8887;SDS011;4480;52.370;9.748;2024-03-08T09:28:40;28.42;;;17.88;;
8887;SDS011;4480;52.370;9.748;2024-03-08T09:31:06;26.48;;;19.23;;
8887;SDS011;4480;52.370;9.748;2024-03-08T09:33:34;29.75;;;21.85;;
8887;SDS011;4480;52.370;9.748;2024-03-08T09:36:01;28.50;;;19.38;;
8887;SDS011;4480;52.370;9.748;2024-03-08T09:38:30;26.67;;;19.65;;
8887;SDS011;4480;52.370;9.748;2024-03-08T09:40:57;28.38;;;20.05;;
8887;SDS011;4480;52.370;9.748;2024-03-08T09:43:23;29.00;;;19.98;;
8887;SDS011;4480;52.370;9.748;2024-03-08T09:45:50;26.90;;;21.10;;
8887;SDS011;4480;52.370;9.748;2024-03-08T09:48:17;27.10;;;19.73;;
8887;SDS011;4480;52.370;9.748;2024-03-08T09:50:45;28.73;;;19.20;;
8887;SDS011;4480;52.370;9.748;2024-03-08T09:53:13;26.25;;;20.05;;
8887;SDS011;4480;52.370;9.748;2024-03-08T09:55:41;28.83;;;20.30;;
8887;SDS011;4480;52.370;9.748;2024-03-08T09:58:09;29.08;;;18.67;;
8887;SDS011;4480;52.370;9.748;2024-03-08T10:00:56;25.17;;;19.00;;
8887;SDS011;4480;52.370;9.748;2024-03-08T10:03:23;29.45;;;20.10;;
8887;SDS011;4480;52.370;9.748;2024-03-08T10:05:51;26.55;;;20.00;;
8887;SDS011;4480;52.370;9.748;2024-03-08T10:08:18;27.13;;;19.60;;
8887;SDS011;4480;52.370;9.748;2024-03-08T10:10:47;23.95;;;19.02;;
8887;SDS011;4480;52.370;9.748;2024-03-08T10:13:14;27.13;;;19.75;;
8887;SDS011;4480;52.370;9.748;2024-03-08T10:15:41;25.27;;;19.27;;
8887;SDS011;4480;52.370;9.748;2024-03-08T10:18:09;26.30;;;18.80;;
8887;SDS011;4480;52.370;9.748;2024-03-08T10:20:36;25.00;;;18.55;;
8887;SDS011;4480;52.370;9.748;2024-03-08T10:23:03;29.05;;;20.73;;
8887;SDS011;4480;52.370;9.748;2024-03-08T10:25:30;28.70;;;19.75;;
8887;SDS011;4480;52.370;9.748;2024-03-08T10:27:58;25.88;;;19.13;;
8887;SDS011;4480;52.370;9.748;2024-03-08T10:30:25;23.80;;;19.65;;
8887;SDS011;4480;52.370;9.748;2024-03-08T10:32:52;26.83;;;18.63;;
8887;SDS011;4480;52.370;9.748;2024-03-08T10:35:19;30.85;;;20.30;;
8887;SDS011;4480;52.370;9.748;2024-03-08T10:37:46;24.98;;;20.60;;
8887;SDS011;4480;52.370;9.748;2024-03-08T10:40:15;26.08;;;21.25;;
8887;SDS011;4480;52.370;9.748;2024-03-08T10:42:47;28.27;;;19.50;;
8887;SDS011;4480;52.370;9.748;2024-03-08T10:45:22;25.45;;;19.10;;
8887;SDS011;4480;52.370;9.748;2024-03-08T10:47:59;28.85;;;19.65;;
8887;SDS011;4480;52.370;9.748;2024-03-08T10:50:35;27.52;;;20.13;;
8887;SDS011;4480;52.370;9.748;2024-03-08T10:53:04;27.67;;;19.95;;
8887;SDS011;4480;52.370;9.748;2024-03-08T10:55:33;29.40;;;20.60;;
8887;SDS011;4480;52.370;9.748;2024-03-08T10:58:02;26.70;;;19.70;;
8887;SDS011;4480;52.370;9.748;2024-03-08T11:00:31;25.55;;;18.25;;
8887;SDS011;4480;52.370;9.748;2024-03-08T11:02:58;25.35;;;19.25;;
8887;SDS011;4480;52.370;9.748;2024-03-08T11:05:31;23.90;;;18.60;;
8887;SDS011;4480;52.370;9.748;2024-03-08T11:08:03;25.63;;;18.55;;
8887;SDS011;4480;52.370;9.748;2024-03-08T11:10:46;26.50;;;19.30;;
8887;SDS011;4480;52.370;9.748;2024-03-08T11:16:02;21.58;;;18.10;;
8887;SDS011;4480;52.370;9.748;2024-03-08T11:18:34;25.52;;;19.25;;
8887;SDS011;4480;52.370;9.748;2024-03-08T11:21:02;26.10;;;19.02;;
8887;SDS011;4480;52.370;9.748;2024-03-08T11:23:31;30.13;;;20.15;;
8887;SDS011;4480;52.370;9.748;2024-03-08T11:25:58;25.17;;;19.70;;
8887;SDS011;4480;52.370;9.748;2024-03-08T11:28:26;25.33;;;19.77;;
8887;SDS011;4480;52.370;9.748;2024-03-08T11:33:53;26.50;;;19.02;;
8887;SDS011;4480;52.370;9.748;2024-03-08T11:36:22;25.63;;;19.45;;
8887;SDS011;4480;52.370;9.748;2024-03-08T11:38:50;27.23;;;20.23;;
8887;SDS011;4480;52.370;9.748;2024-03-08T11:41:18;22.77;;;18.08;;
8887;SDS011;4480;52.370;9.748;2024-03-08T11:43:46;25.02;;;18.88;;
8887;SDS011;4480;52.370;9.748;2024-03-08T11:46:13;22.90;;;17.98;;
8887;SDS011;4480;52.370;9.748;2024-03-08T11:48:42;25.98;;;19.33;;
8887;SDS011;4480;52.370;9.748;2024-03-08T11:51:10;29.45;;;20.38;;
8887;SDS011;4480;52.370;9.748;2024-03-08T11:53:38;25.63;;;19.55;;
8887;SDS011;4480;52.370;9.748;2024-03-08T11:56:06;23.83;;;18.70;;
8887;SDS011;4480;52.370;9.748;2024-03-08T11:58:33;23.55;;;18.50;;
8887;SDS011;4480;52.370;9.748;2024-03-08T12:01:02;27.88;;;20.15;;
8887;SDS011;4480;52.370;9.748;2024-03-08T12:03:30;33.72;;;21.20;;
8887;SDS011;4480;52.370;9.748;2024-03-08T12:06:00;21.02;;;17.45;;
8887;SDS011;4480;52.370;9.748;2024-03-08T12:08:28;26.27;;;20.60;;
8887;SDS011;4480;52.370;9.748;2024-03-08T12:10:57;26.25;;;19.45;;
8887;SDS011;4480;52.370;9.748;2024-03-08T12:13:25;25.58;;;19.40;;
8887;SDS011;4480;52.370;9.748;2024-03-08T12:15:55;25.33;;;17.20;;
8887;SDS011;4480;52.370;9.748;2024-03-08T12:18:23;23.25;;;17.30;;
8887;SDS011;4480;52.370;9.748;2024-03-08T12:20:50;21.13;;;16.08;;
8887;SDS011;4480;52.370;9.748;2024-03-08T12:23:18;22.85;;;16.70;;
8887;SDS011;4480;52.370;9.748;2024-03-08T12:25:45;21.67;;;14.95;;
8887;SDS011;4480;52.370;9.748;2024-03-08T12:28:13;24.13;;;16.05;;
8887;SDS011;4480;52.370;9.748;2024-03-08T12:30:45;17.30;;;15.43;;
8887;SDS011;4480;52.370;9.748;2024-03-08T12:33:13;18.50;;;14.50;;
8887;SDS011;4480;52.370;9.748;2024-03-08T12:35:49;19.70;;;14.45;;
8887;SDS011;4480;52.370;9.748;2024-03-08T12:38:20;18.65;;;14.93;;
8887;SDS011;4480;52.370;9.748;2024-03-08T12:40:50;21.20;;;14.80;;
8887;SDS011;4480;52.370;9.748;2024-03-08T12:43:18;20.40;;;16.45;;
8887;SDS011;4480;52.370;9.748;2024-03-08T12:45:45;19.50;;;15.45;;
8887;SDS011;4480;52.370;9.748;2024-03-08T12:48:13;21.05;;;15.32;;
8887;SDS011;4480;52.370;9.748;2024-03-08T12:50:40;22.65;;;15.35;;
8887;SDS011;4480;52.370;9.748;2024-03-08T12:53:08;24.00;;;16.65;;
8887;SDS011;4480;52.370;9.748;2024-03-08T12:55:37;23.15;;;16.08;;
8887;SDS011;4480;52.370;9.748;2024-03-08T12:58:03;25.33;;;18.10;;
8887;SDS011;4480;52.370;9.748;2024-03-08T13:00:32;21.30;;;16.90;;
8887;SDS011;4480;52.370;9.748;2024-03-08T13:03:01;19.65;;;15.35;;
8887;SDS011;4480;52.370;9.748;2024-03-08T13:05:28;25.35;;;19.35;;
8887;SDS011;4480;52.370;9.748;2024-03-08T13:07:55;26.47;;;18.77;;
8887;SDS011;4480;52.370;9.748;2024-03-08T13:10:22;27.15;;;20.42;;
8887;SDS011;4480;52.370;9.748;2024-03-08T13:12:50;25.83;;;19.67;;
8887;SDS011;4480;52.370;9.748;2024-03-08T13:15:18;29.40;;;20.45;;
8887;SDS011;4480;52.370;9.748;2024-03-08T13:17:46;25.90;;;19.87;;
8887;SDS011;4480;52.370;9.748;2024-03-08T13:20:13;23.63;;;19.02;;
8887;SDS011;4480;52.370;9.748;2024-03-08T13:22:44;27.35;;;20.98;;
8887;SDS011;4480;52.370;9.748;2024-03-08T13:25:12;23.05;;;17.20;;
8887;SDS011;4480;52.370;9.748;2024-03-08T13:27:39;25.73;;;18.87;;
8887;SDS011;4480;52.370;9.748;2024-03-08T13:30:09;23.73;;;17.98;;
8887;SDS011;4480;52.370;9.748;2024-03-08T13:32:39;24.50;;;18.30;;
8887;SDS011;4480;52.370;9.748;2024-03-08T13:35:08;22.23;;;18.10;;
8887;SDS011;4480;52.370;9.748;2024-03-08T13:37:37;25.02;;;18.58;;
8887;SDS011;4480;52.370;9.748;2024-03-08T13:40:05;23.30;;;18.17;;
8887;SDS011;4480;52.370;9.748;2024-03-08T13:42:35;25.13;;;16.60;;
8887;SDS011;4480;52.370;9.748;2024-03-08T13:45:03;22.05;;;17.33;;
8887;SDS011;4480;52.370;9.748;2024-03-08T13:47:33;22.00;;;18.07;;
8887;SDS011;4480;52.370;9.748;2024-03-08T13:50:00;21.17;;;15.90;;
8887;SDS011;4480;52.370;9.748;2024-03-08T13:52:27;22.30;;;16.97;;
8887;SDS011;4480;52.370;9.748;2024-03-08T13:54:55;25.93;;;17.57;;
8887;SDS011;4480;52.370;9.748;2024-03-08T13:57:22;26.87;;;18.17;;
8887;SDS011;4480;52.370;9.748;2024-03-08T13:59:49;20.33;;;15.60;;
8887;SDS011;4480;52.370;9.748;2024-03-08T14:02:16;22.25;;;16.98;;
8887;SDS011;4480;52.370;9.748;2024-03-08T14:04:44;21.27;;;16.90;;
8887;SDS011;4480;52.370;9.748;2024-03-08T14:07:12;21.30;;;17.85;;
8887;SDS011;4480;52.370;9.748;2024-03-08T14:09:38;20.65;;;16.25;;
8887;SDS011;4480;52.370;9.748;2024-03-08T14:12:08;27.73;;;19.45;;
8887;SDS011;4480;52.370;9.748;2024-03-08T14:14:35;23.60;;;17.57;;
8887;SDS011;4480;52.370;9.748;2024-03-08T14:17:02;22.40;;;18.00;;
8887;SDS011;4480;52.370;9.748;2024-03-08T14:19:29;24.73;;;17.27;;
8887;SDS011;4480;52.370;9.748;2024-03-08T14:21:58;23.30;;;16.90;;
8887;SDS011;4480;52.370;9.748;2024-03-08T14:24:25;21.00;;;16.02;;
8887;SDS011;4480;52.370;9.748;2024-03-08T14:26:51;23.70;;;16.15;;
8887;SDS011;4480;52.370;9.748;2024-03-08T14:29:18;21.70;;;16.60;;
8887;SDS011;4480;52.370;9.748;2024-03-08T14:31:45;21.83;;;16.50;;
8887;SDS011;4480;52.370;9.748;2024-03-08T14:34:12;21.52;;;17.15;;
8887;SDS011;4480;52.370;9.748;2024-03-08T14:36:39;18.23;;;14.80;;
8887;SDS011;4480;52.370;9.748;2024-03-08T14:39:08;18.90;;;15.50;;
8887;SDS011;4480;52.370;9.748;2024-03-08T14:41:34;18.23;;;14.32;;
8887;SDS011;4480;52.370;9.748;2024-03-08T14:44:01;18.83;;;15.88;;
8887;SDS011;4480;52.370;9.748;2024-03-08T14:46:28;21.10;;;15.80;;
8887;SDS011;4480;52.370;9.748;2024-03-08T14:48:55;19.83;;;14.25;;
8887;SDS011;4480;52.370;9.748;2024-03-08T14:51:22;21.73;;;15.57;;
8887;SDS011;4480;52.370;9.748;2024-03-08T14:53:51;19.73;;;14.70;;
8887;SDS011;4480;52.370;9.748;2024-03-08T14:56:21;18.33;;;15.50;;
8887;SDS011;4480;52.370;9.748;2024-03-08T14:58:48;18.70;;;15.18;;